Terminal Aerodrome Forecast
Issued by NWS Shreveport, LA

Current Version | Previous Version | Text Only | Print | Product List | Glossary On
Versions: 1 2 3 4 5 6 7 8 9 10 11 12 13 14 15 16
000
FTUS44 KSHV 222300
TAFTYR
TAF
KTYR 222321Z 2300/2324 19008KT P6SM SKC
      TEMPO 2311/2314 BKN015=

USA.gov is the U.S. government's official web portal to all federal, state and local government web resources and services.